Science Garden, Philippines

5:32 PM PHT on June 30, 2015 (GMT +0800)
Loyola Heights | | Change Station
CLOSE
Current Station
Personal Weather Station
Location: Quezon City, NCR
Elevation: 187 ft
Nearby Weather Stations

Elev 187 ft 14.64 °N, 121.08 °E | Updated 57 seconds ago

Mostly Cloudy
Mostly Cloudy
85.6 °F
Feels Like 99 °F
N
3.0
Wind Variable Wind from SSW

Today
High -- | Low -- °F
--% Chance of Precip.
Yesterday
High -- | Low -- °F
Precip. -- in
5:29 AM 6:28 PM
Waxing Gibbous, 96% visible
Pressure 29.74 in
Visibility 6.2 miles
Clouds Scattered Clouds 2000 ft
Mostly Cloudy 9000 ft
Heat Index 99 °F
Dew Point 79 °F
Humidity 81%
Rainfall in
Snow Depth Not available.
UV 4.7 out of 12
Pollen Not available.
Air Quality Not available.
Flu Activity Not available.
METAR RPLC 300900Z 35003KT 9999 SCT020 BKN090 32/24 Q1007 RMK NOSIG A2975

More Conditions Fewer Conditions

Pressure 29.74 in
Visibility 6.2 miles
Clouds Scattered Clouds 2000 ft
Mostly Cloudy 9000 ft
Heat Index 99 °F
Dew Point 79 °F
Humidity 81%
Rainfall in
Snow Depth Not available.
UV 4.7 out of 12
Pollen Not available.
Air Quality Not available.
Flu Activity Not available.
METAR RPLC 300900Z 35003KT 9999 SCT020 BKN090 32/24 Q1007 RMK NOSIG A2975

More Conditions Fewer Conditions

10-Day Weather Forecast

×

Almanac

Astronomy

Jun. 30, 2015 Rise Set
Actual Time
Civil Twilight
Nautical Twilight
Astronomical Twilight
Moon
Length of Visible Light
Length of Day
Tomorrow will be .
, % of the Moon is Illuminated

Today's Extremes

Country Highs Country Lows

Community

WunderPhotos

Upload Photos

1,833,983 photos uploaded!

WunderBlogs® & News

Nearby

Air Quality

  Air Quality AQ Index Pollutant
Not available.

Snow Depth

Station Depth Elevation

Earthquake Activity

City Distance Mag. Time & Date
Minimum magnitude displayed is 2.5.

Coastal Water Temperatures

Place Temperature

Stations

Nearby Weather Stations

Station Location Temp. Windchill Dew Point Humidity Wind Precip. Elev Updated Type